»·PEaware :: DAL2080 KSLC-KPHX

DAL2080 :: KSLC-KPHX

FLIGHT INFORMATION

Flight Status: Arrived
Operator:
Delta Air Lines
More flights by this operator :: More flights under this callsign
Pilot: Anonymous 13363 (13363)
Aircraft: BOEING 737-800
(B738)
More flights by this aircraft type
Origin: KSLC Salt Lake City Intl
United States
Destination: KPHX Phoenix Sky Harbor Intl
United States
More flights between these airports :: More routes between these airports
Route: +WEVIC6 BCE CORKR TENTS BRUSR1
File this flight plan on PilotEdge
Remarks:
Altitude:
(Current/Filed)
37,000ft
Speed:
(Current/Filed)
446kts
Departed: 21-Jan-18 06:35 PM
Arrived: 21-Jan-18 07:52 PM
Distance/Time
Traveled:
441nm/1:16
Distance/Time
To Go:
Arrived

Flight Plot

Page will automatically refresh every two minutes.

Flight plan parsing failed; only flown route is shown


Map Options




Map Legend


Flown Route
Filed Route
Departure Airport
Arrival Airport
Navaid (VOR, NDB)
Fix

Horizontal Profiles

Position Reports

Time Latitude Longitude Heading Altitude Ground
Speed
21-Jan-18 17:56 40.787338 -111.984931 101 4234ft 0kts
21-Jan-18 17:57 40.787338 -111.984931 101 4234ft 0kts
21-Jan-18 17:58 40.787338 -111.984931 101 4234ft 0kts
21-Jan-18 17:59 40.787338 -111.984931 101 4234ft 0kts
21-Jan-18 18:00 40.787338 -111.984931 101 4234ft 0kts
21-Jan-18 18:01 40.787338 -111.984931 101 4234ft 0kts
21-Jan-18 18:02 40.787338 -111.984931 101 4234ft 0kts
21-Jan-18 18:03 40.787338 -111.984931 101 4234ft 0kts
21-Jan-18 18:04 40.787338 -111.984931 101 4234ft 0kts
21-Jan-18 18:05 40.787338 -111.984931 101 4234ft 0kts
21-Jan-18 18:06 40.787338 -111.984931 101 4234ft 0kts
21-Jan-18 18:07 40.787338 -111.984931 101 4234ft 0kts
21-Jan-18 18:08 40.787338 -111.984931 101 4234ft 0kts
21-Jan-18 18:09 40.787338 -111.984931 101 4234ft 0kts
21-Jan-18 18:10 40.787338 -111.984931 101 4234ft 0kts
21-Jan-18 18:11 40.787338 -111.984931 101 4234ft 0kts
21-Jan-18 18:12 40.787338 -111.984931 101 4234ft 0kts
21-Jan-18 18:13 40.787338 -111.984931 101 4234ft 0kts
21-Jan-18 18:14 40.787338 -111.984931 101 4234ft 0kts
21-Jan-18 18:15 40.787338 -111.984931 101 4234ft 0kts
21-Jan-18 18:16 40.787338 -111.984931 101 4234ft 0kts
21-Jan-18 18:17 40.787338 -111.984931 101 4234ft 0kts
21-Jan-18 18:18 40.787338 -111.984931 101 4234ft 0kts
21-Jan-18 18:19 40.787338 -111.984931 101 4234ft 0kts
21-Jan-18 18:20 40.787338 -111.984931 101 4234ft 0kts
21-Jan-18 18:21 40.787338 -111.984931 101 4234ft 0kts
21-Jan-18 18:22 40.787338 -111.984931 101 4234ft 0kts
21-Jan-18 18:23 40.787338 -111.984931 101 4234ft 0kts
21-Jan-18 18:24 40.787338 -111.984931 101 4234ft 0kts
21-Jan-18 18:25 40.787373 -111.985156 99 4234ft 2kts
21-Jan-18 18:26 40.787233 -111.985902 53 4234ft 2kts
21-Jan-18 18:27 40.787804 -111.986282 327 4234ft 4kts
21-Jan-18 18:28 40.787958 -111.986392 339 4234ft 0kts
21-Jan-18 18:29 40.787958 -111.986392 339 4234ft 0kts
21-Jan-18 18:30 40.787958 -111.986392 339 4234ft 0kts
21-Jan-18 18:31 40.789065 -111.986650 345 4234ft 10kts
21-Jan-18 18:32 40.791301 -111.989159 264 4234ft 11kts
21-Jan-18 18:33 40.791545 -111.993091 317 4235ft 9kts
21-Jan-18 18:34 40.794065 -111.994553 354 4234ft 13kts
21-Jan-18 18:35 40.798270 -111.995053 352 4235ft 16kts
21-Jan-18 18:36 40.802550 -111.995540 357 4234ft 14kts
21-Jan-18 18:37 40.806394 -111.995977 354 4235ft 13kts
21-Jan-18 18:38 40.807802 -111.997826 232 4234ft 7kts
21-Jan-18 18:39 40.807381 -111.999230 177 4235ft 0kts
21-Jan-18 18:40 40.806827 -111.999185 175 4235ft 31kts
21-Jan-18 18:41 40.771837 -111.995232 176 5087ft 169kts
21-Jan-18 18:42 40.724072 -111.988859 173 7296ft 181kts
21-Jan-18 18:43 40.665365 -111.980468 174 8444ft 260kts
21-Jan-18 18:44 40.588485 -111.969702 174 11531ft 286kts
21-Jan-18 18:45 40.508847 -111.958520 179 13981ft 301kts
21-Jan-18 18:46 40.415570 -111.948610 179 15218ft 361kts
21-Jan-18 18:47 40.312941 -111.941735 178 17729ft 379kts
21-Jan-18 18:48 40.206533 -111.948317 190 20059ft 393kts
21-Jan-18 18:49 40.095956 -111.965457 189 22275ft 410kts
21-Jan-18 18:50 39.980897 -111.982355 189 24321ft 425kts
21-Jan-18 18:51 39.864295 -111.999387 189 26255ft 437kts
21-Jan-18 18:52 39.743936 -112.016903 189 28005ft 449kts
21-Jan-18 18:53 39.618768 -112.035049 189 29737ft 457kts
21-Jan-18 18:54 39.494902 -112.052914 190 31975ft 446kts
21-Jan-18 18:55 39.384973 -112.068620 190 33787ft 438kts
21-Jan-18 18:56 39.269659 -112.084973 190 35944ft 426kts
21-Jan-18 18:57 39.152536 -112.101569 190 37309ft 428kts
21-Jan-18 18:58 39.030260 -112.118833 190 37332ft 460kts
21-Jan-18 18:59 38.902746 -112.136683 190 37320ft 463kts
21-Jan-18 19:00 38.778602 -112.154040 190 37316ft 463kts
21-Jan-18 19:01 38.650733 -112.171860 190 37316ft 463kts
21-Jan-18 19:02 38.523420 -112.189545 190 37291ft 463kts
21-Jan-18 19:03 38.396201 -112.207155 190 37290ft 463kts
21-Jan-18 19:04 38.268323 -112.224793 190 37291ft 462kts
21-Jan-18 19:05 38.141033 -112.242292 190 37215ft 463kts
21-Jan-18 19:06 38.013807 -112.259719 190 37184ft 462kts
21-Jan-18 19:07 37.887782 -112.276919 190 37182ft 462kts
21-Jan-18 19:08 37.759365 -112.294360 192 37178ft 475kts
21-Jan-18 19:09 37.628068 -112.308045 188 37202ft 477kts
21-Jan-18 19:10 37.496089 -112.315605 188 37207ft 477kts
21-Jan-18 19:11 37.363970 -112.323508 188 37208ft 477kts
21-Jan-18 19:12 37.231643 -112.331450 189 37209ft 477kts
21-Jan-18 19:13 37.107617 -112.338891 189 37210ft 476kts
21-Jan-18 19:14 36.975793 -112.346809 189 37221ft 476kts
21-Jan-18 19:15 36.847811 -112.354493 189 37284ft 476kts
21-Jan-18 19:16 36.716438 -112.362380 189 37285ft 476kts
21-Jan-18 19:17 36.584556 -112.370296 189 37284ft 476kts
21-Jan-18 19:18 36.453091 -112.378191 189 37234ft 475kts
21-Jan-18 19:19 36.336099 -112.385218 189 37234ft 476kts
21-Jan-18 19:20 36.204290 -112.393133 189 37235ft 476kts
21-Jan-18 19:21 36.072414 -112.401136 190 37238ft 474kts
21-Jan-18 19:22 35.949013 -112.412012 191 37194ft 416kts
21-Jan-18 19:23 35.880208 -112.418112 191 36233ft 404kts
21-Jan-18 19:24 35.793552 -112.425783 191 34561ft 417kts
21-Jan-18 19:25 35.677165 -112.435909 190 32368ft 427kts
21-Jan-18 19:26 35.558794 -112.446112 190 30164ft 425kts
21-Jan-18 19:27 35.438817 -112.442096 174 29212ft 445kts
21-Jan-18 19:28 35.317182 -112.417550 174 29208ft 445kts
21-Jan-18 19:29 35.195375 -112.393618 174 29210ft 445kts
21-Jan-18 19:30 35.073567 -112.367237 173 29211ft 446kts
21-Jan-18 19:31 34.952494 -112.340991 173 28727ft 452kts
21-Jan-18 19:32 34.878849 -112.325041 173 27165ft 429kts
21-Jan-18 19:33 34.797617 -112.307212 173 25327ft 404kts
21-Jan-18 19:34 34.694397 -112.284348 178 22856ft 378kts
21-Jan-18 19:35 34.594716 -112.262622 177 20377ft 370kts
21-Jan-18 19:36 34.494534 -112.240715 176 18544ft 358kts
21-Jan-18 19:37 34.398918 -112.218059 173 16822ft 346kts
21-Jan-18 19:38 34.308327 -112.194428 173 15417ft 338kts
21-Jan-18 19:39 34.218551 -112.171195 172 14034ft 331kts
21-Jan-18 19:40 34.131645 -112.148765 172 12696ft 321kts
21-Jan-18 19:41 34.049543 -112.113966 142 11958ft 324kts
21-Jan-18 19:42 33.965219 -112.084523 168 12010ft 322kts
21-Jan-18 19:43 33.880981 -112.053194 164 10824ft 315kts
21-Jan-18 19:44 33.815470 -112.026954 163 9892ft 310kts
21-Jan-18 19:45 33.741380 -111.997025 161 8898ft 262kts
21-Jan-18 19:46 33.674266 -111.969919 161 8284ft 256kts
21-Jan-18 19:47 33.607455 -111.942924 161 7674ft 250kts
21-Jan-18 19:48 33.545521 -111.917780 157 7093ft 235kts
21-Jan-18 19:49 33.528413 -111.850098 92 5999ft 220kts
21-Jan-18 19:50 33.536463 -111.780082 88 4712ft 213kts
21-Jan-18 19:51 33.497547 -111.749879 179 4003ft 183kts
21-Jan-18 19:52 33.450438 -111.759931 236 3986ft 164kts
21-Jan-18 19:53 33.429107 -111.806531 263 3938ft 159kts
21-Jan-18 19:54 33.428638 -111.858309 268 3442ft 141kts
21-Jan-18 19:55 33.428802 -111.903983 269 2736ft 137kts
21-Jan-18 19:56 33.428568 -111.949532 268 2025ft 139kts
21-Jan-18 19:57 33.428858 -111.995381 269 1240ft 136kts
21-Jan-18 19:58 33.429232 -112.021370 300 1116ft 19kts
21-Jan-18 19:59 33.429945 -112.020506 88 1116ft 10kts
21-Jan-18 20:00 33.429991 -112.016698 78 1116ft 12kts
21-Jan-18 20:01 33.432424 -112.015125 30 1116ft 9kts
21-Jan-18 20:02 33.432883 -112.012717 89 1116ft 8kts
21-Jan-18 20:03 33.432870 -112.009703 91 1116ft 7kts
21-Jan-18 20:04 33.432872 -112.007331 90 1116ft 9kts
21-Jan-18 20:05 33.434391 -112.004679 1 1116ft 14kts
21-Jan-18 20:06 33.438271 -112.004724 352 1116ft 7kts
21-Jan-18 20:07 33.438896 -112.007165 235 1116ft 11kts
21-Jan-18 20:08 33.437337 -112.008170 269 1116ft 0kts

Navigation Log

Ident Type
Flight plan parsing failed, navigation log unavailable